Bayshore, New York
Current Conditions -  °F | °C
As of 7:53 PM on Saturday 25 Oct 2014 (Local Time) from KFRG Reporting Station
Clear Clear  
Wind Chill: 16°   Ceiling: Unl
Heat Index: 16°   Visibility: 10mi
Dew Point:   Wind: 7mph
Humidity: 60%   Direction: 230°SW
Pressure: 29.65"   Gusts: NA
Location:  40.7379°N, 73.2632°W
Report Text: KFRG 252353Z 23006KT 10SM CLR 16/08 A2965 RMK AO2 SLP039 T01610083 10189 20156 56007
Loading
Personal Weather Stations






























Interactive Weather Map
Tropical Storm Tracking
New forecast layout! Learn more

10-Day Weather Forecast

Advertisements
Track Severe Weather on mobile